Time;durP1;ratioP1;P1;durP2;ratioP2;P2;SDS_P1;SDS_P2;PMS_P1;PMS_P2;Temp;Humidity;BMP_temperature;BMP_pressure;BME280_temperature;BME280_humidity;BME280_pressure;Samples;Min_cycle;Max_cycle;Signal;HPM_P1;HPM_P2
2022/04/28 00:00:20;;;;;;;12.33;7.62;;;;;;;7.59;87.84;100590.65;1715157;83;21797;-85
2022/04/28 00:03:26;;;;;;;13.62;6.53;;;;;;;7.55;88.11;100593.31;1713617;82;21843;-85
2022/04/28 00:06:32;;;;;;;12.15;7.45;;;;;;;7.51;88.12;100595.47;1714953;82;21220;-84
2022/04/28 00:09:39;;;;;;;13.28;7.05;;;;;;;7.47;88.54;100600.86;1716262;83;21231;-83
2022/04/28 00:12:46;;;;;;;10.95;7.37;;;;;;;7.45;88.81;100596.58;1727505;81;21254;-84
2022/04/28 00:15:53;;;;;;;11.65;6.42;;;;;;;7.45;88.96;100599.30;1726962;82;21231;-84
2022/04/28 00:19:00;;;;;;;12.63;7.10;;;;;;;7.42;88.81;100598.58;1726952;83;21167;-84
2022/04/28 00:22:06;;;;;;;12.50;7.67;;;;;;;7.37;88.71;100592.73;1728058;81;21708;-84
2022/04/28 00:25:12;;;;;;;10.72;7.37;;;;;;;7.34;89.14;100597.60;1726982;82;21179;-84
2022/04/28 00:28:20;;;;;;;11.83;7.83;;;;;;;7.33;89.51;100594.53;1726984;81;21243;-85
2022/04/28 00:31:27;;;;;;;14.63;7.80;;;;;;;7.30;89.71;100595.70;1728145;83;21184;-84
2022/04/28 00:34:33;;;;;;;11.55;7.53;;;;;;;7.28;89.99;100592.26;1727579;83;21212;-84
2022/04/28 00:37:40;;;;;;;10.38;7.30;;;;;;;7.30;90.39;100598.94;1726621;81;21215;-83
2022/04/28 00:40:47;;;;;;;15.93;8.85;;;;;;;7.33;90.63;100591.81;1728122;83;21180;-84
2022/04/28 00:44:00;;;;;;;11.95;7.12;;;;;;;7.34;90.73;100598.48;1726982;82;21195;-84
2022/04/28 00:47:07;;;;;;;18.12;6.55;;;;;;;7.37;90.78;100592.73;1727962;81;21753;-85
2022/04/28 00:53:38;;;;;;;10.93;7.05;;;;;;;7.42;90.38;100592.28;1613035;88;21227;-84
2022/04/28 00:56:43;;;;;;;11.65;6.50;;;;;;;7.40;89.92;100595.67;1728118;81;21174;-84
2022/04/28 00:59:52;;;;;;;8.63;6.28;;;;;;;7.37;89.72;100595.45;1727974;83;21724;-84
2022/04/28 01:02:58;;;;;;;15.55;6.85;;;;;;;7.35;89.67;100593.39;1724692;82;21731;-84
2022/04/28 01:06:07;;;;;;;18.52;7.47;;;;;;;7.34;89.72;100598.48;1706833;83;21656;-84
2022/04/28 01:09:12;;;;;;;12.53;6.85;;;;;;;7.32;89.83;100601.84;1726759;81;21177;-85
2022/04/28 01:12:23;;;;;;;11.50;6.83;;;;;;;7.31;89.90;100593.84;1725946;82;21217;-85
2022/04/28 01:15:29;;;;;;;8.08;6.08;;;;;;;7.30;89.95;100590.77;1726940;82;21205;-84
2022/04/28 01:18:34;;;;;;;11.33;6.15;;;;;;;7.29;90.04;100594.00;1728211;83;21250;-85
2022/04/28 01:21:33;;;;;;;14.23;7.00;;;;;;;7.27;90.04;100591.91;1728147;83;21170;-84
2022/04/28 01:24:41;;;;;;;10.13;6.72;;;;;;;7.24;89.84;100592.19;1727703;83;21174;-84
2022/04/28 01:27:47;;;;;;;8.90;6.15;;;;;;;7.22;89.88;100598.30;1727622;83;21777;-79
2022/04/28 01:30:53;;;;;;;10.10;7.08;;;;;;;7.18;89.86;100598.23;1726914;83;21181;-85
2022/04/28 01:34:08;;;;;;;12.80;6.90;;;;;;;7.14;89.73;100591.38;1728376;83;21166;-79
2022/04/28 01:37:14;;;;;;;14.35;6.83;;;;;;;7.09;90.05;100595.03;1728391;81;21217;-79
2022/04/28 01:40:21;;;;;;;13.75;7.20;;;;;;;7.06;90.34;100602.16;1727253;83;21217;-78
2022/04/28 01:43:27;;;;;;;11.45;7.22;;;;;;;7.00;90.39;100599.48;1726787;82;21257;-78
2022/04/28 01:46:36;;;;;;;10.55;6.83;;;;;;;6.95;90.39;100597.71;1727239;83;21241;-78
2022/04/28 01:49:49;;;;;;;12.35;7.10;;;;;;;6.86;89.86;100604.88;1637015;83;21209;-78
2022/04/28 01:56:33;;;;;;;12.28;6.53;;;;;;;6.76;90.92;100599.95;1691166;83;21734;-78
2022/04/28 01:59:52;;;;;;;11.38;6.70;;;;;;;6.75;91.28;100603.69;1728015;83;21186;-78
2022/04/28 02:03:09;;;;;;;11.33;7.00;;;;;;;6.76;91.52;100597.23;1727240;83;21240;-79
2022/04/28 02:06:16;;;;;;;13.22;6.97;;;;;;;6.78;91.56;100597.97;1727284;83;21229;-78
2022/04/28 02:09:24;;;;;;;12.10;6.65;;;;;;;6.79;91.52;100601.04;1727934;83;21793;-79
2022/04/28 02:12:30;;;;;;;11.10;6.75;;;;;;;6.79;91.05;100605.63;1730365;82;21244;-78
2022/04/28 02:15:55;;;;;;;10.28;6.85;;;;;;;6.73;90.22;100603.46;1735120;82;21197;-78
2022/04/28 02:19:11;;;;;;;10.08;6.28;;;;;;;6.67;90.41;100599.46;1731812;82;21248;-78
2022/04/28 02:22:17;;;;;;;13.62;7.12;;;;;;;6.63;90.38;100592.59;1703754;83;21800;-78
2022/04/28 02:25:24;;;;;;;14.18;6.70;;;;;;;6.61;90.85;100593.25;1705641;84;21230;-79
2022/04/28 02:28:31;;;;;;;9.95;6.12;;;;;;;6.61;90.82;100604.13;1705782;83;21780;-78
2022/04/28 02:31:36;;;;;;;13.43;6.78;;;;;;;6.59;90.56;100607.50;1707057;83;21183;-78
2022/04/28 02:34:43;;;;;;;12.43;6.53;;;;;;;6.56;90.55;100609.14;1723057;82;21220;-78
2022/04/28 02:37:42;;;;;;;;;;;;;;;6.58;90.94;100619.34;1737660;81;21213;-78
2022/04/28 02:40:48;;;;;;;9.68;6.30;;;;;;;6.60;90.58;100621.44;1735590;82;20601;-78
2022/04/28 02:43:53;;;;;;;12.18;6.83;;;;;;;6.60;90.01;100610.57;1735146;81;21248;-78
2022/04/28 02:46:59;;;;;;;10.63;6.03;;;;;;;6.69;90.44;100611.06;1722519;81;21276;-79
2022/04/28 02:50:05;;;;;;;9.23;6.22;;;;;;;6.85;90.77;100607.25;1735089;82;21209;-79
2022/04/28 02:53:14;;;;;;;8.45;6.22;;;;;;;7.06;90.52;100610.31;1735675;81;21618;-79
2022/04/28 02:56:20;;;;;;;11.73;6.08;;;;;;;7.29;89.83;100599.44;1735347;82;21233;-79
2022/04/28 02:59:27;;;;;;;12.88;5.72;;;;;;;7.60;88.82;100599.16;1734424;82;21185;-79
2022/04/28 03:02:33;;;;;;;8.55;5.42;;;;;;;7.90;87.58;100601.61;1735792;82;21249;-79
2022/04/28 03:12:27;;;;;;;9.08;5.62;;;;;;;8.49;83.52;100603.95;1722102;82;21223;-79
2022/04/28 03:15:36;;;;;;;9.38;5.25;;;;;;;8.60;82.52;100600.98;1720830;82;21174;-79
2022/04/28 03:18:45;;;;;;;9.53;5.75;;;;;;;8.69;81.68;100600.90;1716382;82;21215;-79
2022/04/28 03:21:51;;;;;;;8.85;5.55;;;;;;;8.80;81.07;100608.48;1716477;82;21223;-77
2022/04/28 03:24:57;;;;;;;11.75;6.12;;;;;;;8.88;80.52;100615.38;1717098;83;21185;-78
2022/04/28 03:28:02;;;;;;;16.40;5.95;;;;;;;9.01;80.05;100623.16;1715691;83;21248;-78
2022/04/28 03:31:08;;;;;;;12.18;6.62;;;;;;;9.13;79.60;100629.58;1717830;83;21206;-77
2022/04/28 03:34:24;;;;;;;14.85;7.03;;;;;;;9.28;78.94;100642.64;1701320;83;21186;-78
2022/04/28 03:37:30;;;;;;;13.45;6.95;;;;;;;9.41;78.14;100649.39;1716622;82;21229;-77
2022/04/28 03:40:35;;;;;;;11.90;7.40;;;;;;;9.54;77.37;100650.30;1717632;83;21737;-78
2022/04/28 03:43:44;;;;;;;13.38;7.78;;;;;;;9.67;76.72;100647.14;1696896;83;21221;-79
2022/04/28 03:46:51;;;;;;;13.30;7.60;;;;;;;9.78;76.15;100650.95;1703605;82;21209;-77
2022/04/28 03:49:58;;;;;;;13.68;7.83;;;;;;;9.92;75.88;100642.65;1709475;83;21181;-77
2022/04/28 03:53:06;;;;;;;16.70;8.83;;;;;;;10.01;75.76;100649.86;1704383;84;21218;-78
2022/04/28 03:56:12;;;;;;;14.90;8.25;;;;;;;10.10;75.29;100650.24;1717261;83;21814;-78
2022/04/28 03:59:17;;;;;;;14.63;8.50;;;;;;;10.21;74.68;100651.84;1716707;83;21194;-79
2022/04/28 04:02:31;;;;;;;16.55;8.43;;;;;;;10.31;74.52;100653.95;1714113;83;21244;-78
2022/04/28 04:05:32;;;;;;;;;;;;;;;10.45;74.10;100643.73;1719188;83;21202;-79
2022/04/28 04:08:37;;;;;;;19.80;6.97;;;;;;;10.58;74.10;100643.23;1735131;82;20192;-78
2022/04/28 04:11:44;;;;;;;14.90;7.72;;;;;;;10.67;74.60;100641.36;1717325;83;21269;-78
2022/04/28 04:14:53;;;;;;;13.43;6.78;;;;;;;10.70;73.90;100643.26;1774472;80;21209;-78
2022/04/28 04:18:18;;;;;;;13.10;6.90;;;;;;;10.80;73.85;100648.56;1781907;79;21818;-79
2022/04/28 04:21:29;;;;;;;9.80;6.03;;;;;;;10.89;73.92;100651.66;1776258;79;21163;-79
2022/04/28 04:24:38;;;;;;;15.48;6.50;;;;;;;11.05;73.79;100654.05;1782454;79;21710;-79
2022/04/28 04:27:43;;;;;;;12.30;6.78;;;;;;;11.19;72.25;100658.83;1764517;80;21166;-78
2022/04/28 04:34:19;;;;;;;9.05;6.00;;;;;;;11.36;71.52;100653.70;1784253;80;21165;-79
2022/04/28 04:37:11;;;;;;;10.85;6.25;;;;;;;11.46;72.36;100663.95;1780660;80;21178;-79
2022/04/28 04:40:19;;;;;;;15.48;6.10;;;;;;;11.61;71.99;100659.12;1783539;80;21727;-79
2022/04/28 04:43:26;;;;;;;10.93;5.50;;;;;;;11.75;70.23;100665.26;1775797;79;21774;-79
2022/04/28 04:46:25;;;;;;;8.15;5.60;;;;;;;11.86;69.64;100669.56;1777975;79;21150;-84
2022/04/28 04:49:20;;;;;;;7.37;5.05;;;;;;;11.98;69.05;100671.73;1773949;79;21217;-85
2022/04/28 04:52:41;;;;;;;8.03;5.37;;;;;;;12.11;68.59;100673.91;1782845;80;21285;-78
2022/04/28 04:55:50;;;;;;;7.45;5.20;;;;;;;12.25;68.26;100686.88;1779233;80;21208;-85
2022/04/28 04:58:56;;;;;;;9.58;5.65;;;;;;;12.39;67.57;100688.54;1782271;80;21213;-85
2022/04/28 05:02:01;;;;;;;7.40;5.20;;;;;;;12.54;67.50;100686.22;1782961;79;21197;-83
2022/04/28 05:05:10;;;;;;;8.35;3.95;;;;;;;12.68;65.85;100681.85;1781364;80;21158;-84
2022/04/28 05:08:27;;;;;;;6.30;4.12;;;;;;;12.78;66.74;100686.58;1783119;79;21205;-85
2022/04/28 05:11:35;;;;;;;5.78;4.08;;;;;;;12.92;65.43;100688.22;1782002;80;21181;-85
2022/04/28 05:14:45;;;;;;;6.08;4.20;;;;;;;13.04;64.96;100697.23;1756974;80;21188;-85
2022/04/28 05:17:53;;;;;;;10.20;4.10;;;;;;;13.18;64.21;100693.36;1783935;79;21201;-85
2022/04/28 05:21:16;;;;;;;7.97;4.05;;;;;;;13.32;64.44;100704.94;1778302;79;21157;-85
2022/04/28 05:24:39;;;;;;;7.65;3.50;;;;;;;13.47;63.66;100703.08;1774588;79;21153;-84
2022/04/28 05:28:04;;;;;;;5.55;3.52;;;;;;;13.61;62.37;100698.66;1797083;79;21201;-85
2022/04/28 05:31:28;;;;;;;6.45;3.33;;;;;;;13.71;63.15;100705.27;1798921;79;21186;-84
2022/04/28 05:34:45;;;;;;;6.90;3.92;;;;;;;13.88;61.31;100703.18;1797682;79;21722;-84
2022/04/28 05:37:51;;;;;;;6.22;3.50;;;;;;;14.01;60.00;100698.73;1798347;79;21209;-84
2022/04/28 05:40:50;;;;;;;9.83;3.20;;;;;;;14.08;59.55;100698.00;1791131;79;21195;-85
2022/04/28 05:47:22;;;;;;;6.17;3.52;;;;;;;14.27;60.11;100706.52;1781866;78;21236;-85
2022/04/28 05:50:27;;;;;;;4.20;2.80;;;;;;;14.31;58.12;100700.97;1784374;80;21785;-84
2022/04/28 05:53:33;;;;;;;7.00;2.67;;;;;;;14.36;58.06;100696.27;1773483;79;22077;-84
2022/04/28 05:56:39;;;;;;;8.25;3.15;;;;;;;14.46;58.27;100696.83;1813944;79;21195;-85
2022/04/28 05:59:45;;;;;;;8.45;3.40;;;;;;;14.63;58.50;100706.25;1771046;80;21185;-84
2022/04/28 06:02:55;;;;;;;5.12;3.08;;;;;;;14.75;57.78;100703.34;1781107;78;21730;-84
2022/04/28 06:06:03;;;;;;;7.67;2.90;;;;;;;14.88;56.21;100711.76;1782890;79;21766;-84
2022/04/28 06:09:11;;;;;;;5.70;2.80;;;;;;;15.01;55.77;100712.44;1790827;79;21710;-85
2022/04/28 06:12:17;;;;;;;5.55;2.37;;;;;;;15.10;55.32;100715.36;1764201;78;21888;-84
2022/04/28 06:15:35;;;;;;;4.08;2.80;;;;;;;15.21;54.10;100725.89;1779523;79;21190;-84
2022/04/28 06:18:50;;;;;;;3.25;2.15;;;;;;;15.27;53.26;100718.73;1781487;79;21264;-84
2022/04/28 06:22:16;;;;;;;3.52;2.00;;;;;;;15.37;52.08;100715.64;1786928;78;21154;-85
2022/04/28 06:25:23;;;;;;;7.50;2.50;;;;;;;15.42;51.08;100713.98;1779969;79;21198;-84
2022/04/28 06:28:30;;;;;;;3.33;2.17;;;;;;;15.49;51.49;100720.95;1781631;78;21229;-84
2022/04/28 06:31:37;;;;;;;3.17;2.20;;;;;;;15.55;50.35;100723.76;1780655;79;21142;-85
2022/04/28 06:34:45;;;;;;;5.17;2.67;;;;;;;15.57;49.86;100728.56;1713737;79;21216;-85
2022/04/28 06:37:53;;;;;;;3.37;2.00;;;;;;;15.63;49.95;100734.34;1776363;79;21166;-84
2022/04/28 06:40:59;;;;;;;2.67;2.20;;;;;;;15.74;49.90;100731.05;1775743;78;21121;-84
2022/04/28 06:44:07;;;;;;;3.95;2.40;;;;;;;15.79;49.69;100729.39;1772395;80;21172;-85
2022/04/28 06:47:28;;;;;;;4.08;2.27;;;;;;;15.83;51.46;100730.70;1781304;78;21205;-79
2022/04/28 06:50:54;;;;;;;3.40;2.22;;;;;;;15.94;48.91;100726.53;1772515;78;21211;-84
2022/04/28 06:54:03;;;;;;;3.83;2.00;;;;;;;16.00;48.62;100729.89;1777773;79;21744;-84
2022/04/28 06:57:03;;;;;;;4.12;2.20;;;;;;;16.10;47.87;100734.52;1772583;78;21256;-84
2022/04/28 07:00:06;;;;;;;5.53;2.00;;;;;;;16.19;46.91;100717.80;1782996;79;21231;-84
2022/04/28 07:03:14;;;;;;;2.55;1.87;;;;;;;16.22;46.16;100711.33;1782695;79;21158;-84
2022/04/28 07:06:22;;;;;;;4.00;1.60;;;;;;;16.23;46.79;100706.66;1766628;80;21170;-84
2022/04/28 07:09:28;;;;;;;2.87;1.82;;;;;;;16.28;46.99;100709.69;1730507;82;21846;-83
2022/04/28 07:12:37;;;;;;;3.98;2.05;;;;;;;16.37;46.77;100716.70;1783919;79;21730;-83
2022/04/28 07:15:44;;;;;;;3.22;1.77;;;;;;;16.47;46.45;100716.36;1778507;78;21805;-83
2022/04/28 07:19:03;;;;;;;3.33;1.67;;;;;;;16.51;45.22;100727.30;1758348;80;21215;-85
2022/04/28 07:22:09;;;;;;;7.90;2.05;;;;;;;16.54;44.75;100716.70;1745456;80;21261;-82
2022/04/28 07:25:16;;;;;;;3.60;1.85;;;;;;;16.59;44.39;100723.83;1751583;79;21154;-82
2022/04/28 07:28:23;;;;;;;3.05;1.50;;;;;;;16.58;43.93;100726.28;1777990;79;21196;-83
2022/04/28 07:31:48;;;;;;;2.60;1.50;;;;;;;16.56;44.64;100738.07;1746412;79;21189;-85
2022/04/28 07:35:13;;;;;;;3.95;1.80;;;;;;;16.55;42.99;100732.20;1760058;79;21914;-83
2022/04/28 07:38:32;;;;;;;2.77;1.50;;;;;;;16.54;43.74;100732.42;1759475;79;22095;-79
2022/04/28 07:41:41;;;;;;;3.27;1.77;;;;;;;16.58;44.40;100724.90;1777600;80;21261;-78
2022/04/28 07:44:47;;;;;;;2.08;1.55;;;;;;;16.65;42.99;100726.83;1748987;78;21170;-79
2022/04/28 07:47:56;;;;;;;1.80;1.57;;;;;;;16.71;42.61;100727.41;1753942;78;21702;-78
2022/04/28 07:51:03;;;;;;;3.65;1.65;;;;;;;16.74;42.47;100725.63;1777384;78;21860;-79
2022/04/28 07:54:11;;;;;;;2.12;1.40;;;;;;;16.74;40.44;100725.09;1773990;79;21722;-79
2022/04/28 07:57:23;;;;;;;4.53;1.40;;;;;;;16.81;42.37;100727.89;1782146;79;21161;-79
2022/04/28 08:00:28;;;;;;;2.37;1.50;;;;;;;16.85;40.88;100723.66;1778374;78;21153;-79
2022/04/28 08:03:34;;;;;;;2.05;1.45;;;;;;;16.89;40.64;100724.08;1780765;79;21205;-79
2022/04/28 08:06:41;;;;;;;2.62;1.50;;;;;;;16.90;41.66;100727.19;1775631;78;21158;-79
2022/04/28 08:09:48;;;;;;;2.50;1.30;;;;;;;16.89;41.30;100720.81;1773317;78;21169;-78
2022/04/28 08:12:57;;;;;;;1.70;1.22;;;;;;;16.89;42.64;100719.94;1777801;79;21171;-79
2022/04/28 08:16:17;;;;;;;7.58;1.47;;;;;;;16.88;41.33;100716.32;1778710;79;21192;-79
2022/04/28 08:19:24;;;;;;;1.70;1.45;;;;;;;16.90;40.84;100718.90;1767989;79;21179;-79
2022/04/28 08:22:32;;;;;;;3.10;1.50;;;;;;;16.89;40.75;100716.67;1756281;79;21268;-79
2022/04/28 08:25:39;;;;;;;1.82;1.07;;;;;;;16.85;39.29;100712.61;1760309;79;21698;-83
2022/04/28 08:28:47;;;;;;;3.05;1.35;;;;;;;16.86;38.74;100712.93;1757459;79;21228;-79
2022/04/28 08:31:54;;;;;;;1.72;1.20;;;;;;;16.96;41.06;100716.14;1756320;80;21220;-79
2022/04/28 08:35:00;;;;;;;2.40;1.40;;;;;;;17.05;41.63;100712.13;1743187;80;21144;-79
2022/04/28 08:38:06;;;;;;;1.92;1.22;;;;;;;17.15;39.33;100710.34;1749342;80;21653;-79
2022/04/28 08:41:16;;;;;;;3.35;1.52;;;;;;;17.24;39.41;100709.61;1745844;80;21203;-79
2022/04/28 08:44:42;;;;;;;1.70;1.05;;;;;;;17.27;39.71;100707.29;1739284;79;21183;-80
2022/04/28 08:48:07;;;;;;;2.37;1.40;;;;;;;17.28;39.55;100705.37;1749757;80;21848;-80
2022/04/28 08:51:24;;;;;;;2.30;1.27;;;;;;;17.28;41.04;100707.60;1736598;79;21249;-79
2022/04/28 08:54:36;;;;;;;5.22;1.42;;;;;;;17.26;39.80;100695.03;1755676;79;21281;-78
2022/04/28 08:57:45;;;;;;;3.55;1.50;;;;;;;17.24;40.49;100698.55;1747813;79;21275;-79
2022/04/28 09:00:53;;;;;;;5.28;1.70;;;;;;;17.34;41.07;100701.22;1748698;80;21175;-79
2022/04/28 09:04:07;;;;;;;1.57;1.32;;;;;;;17.46;40.16;100700.61;1735291;80;21224;-79
2022/04/28 09:07:45;;;;;;;3.77;1.40;;;;;;;17.52;39.43;100697.84;1757131;80;21209;-79
2022/04/28 09:11:11;;;;;;;10.38;1.62;;;;;;;17.50;41.40;100699.98;1730613;80;21183;-85
2022/04/28 09:14:25;;;;;;;5.85;1.67;;;;;;;17.55;40.01;100701.56;1750578;80;21209;-85
2022/04/28 09:17:31;;;;;;;1.82;1.25;;;;;;;17.53;38.94;100706.44;1758320;80;21222;-85
2022/04/28 09:20:40;;;;;;;4.85;1.12;;;;;;;17.43;40.17;100693.58;1750901;78;21162;-85
2022/04/28 09:23:47;;;;;;;2.30;1.07;;;;;;;17.40;40.09;100692.61;1772091;79;21163;-85
2022/04/28 09:27:04;;;;;;;1.95;1.10;;;;;;;17.44;40.57;100697.19;1778781;79;21787;-85
2022/04/28 09:30:22;;;;;;;1.75;1.22;;;;;;;17.47;39.38;100697.63;1777080;79;21221;-85
2022/04/28 09:33:29;;;;;;;2.30;1.20;;;;;;;17.46;38.17;100686.25;1780891;79;21217;-85
2022/04/28 09:36:39;;;;;;;2.80;1.40;;;;;;;17.47;39.38;100688.48;1757339;79;21168;-84
2022/04/28 09:43:13;;;;;;;4.53;1.30;;;;;;;17.55;38.24;100690.50;1771845;79;21252;-84
2022/04/28 09:46:22;;;;;;;3.90;1.42;;;;;;;17.44;38.09;100677.30;1740646;80;21153;-84
2022/04/28 09:49:30;;;;;;;1.95;1.10;;;;;;;17.42;38.41;100681.36;1778055;79;21185;-84
2022/04/28 09:52:45;;;;;;;3.30;1.20;;;;;;;17.44;38.90;100683.36;1732751;78;21192;-84
2022/04/28 09:55:53;;;;;;;4.12;1.35;;;;;;;17.51;37.83;100679.55;1772737;78;21167;-84
2022/04/28 09:59:10;;;;;;;1.42;1.07;;;;;;;17.52;38.07;100679.86;1780451;78;21771;-84
2022/04/28 10:02:21;;;;;;;1.90;1.20;;;;;;;17.51;38.25;100682.31;1776062;79;21187;-84
2022/04/28 10:05:30;;;;;;;1.95;1.17;;;;;;;17.55;37.04;100679.44;1721667;80;21793;-84
2022/04/28 10:08:56;;;;;;;2.62;1.10;;;;;;;17.55;36.44;100675.80;1678796;83;21192;-83
2022/04/28 10:12:05;;;;;;;1.60;1.00;;;;;;;17.58;36.33;100685.91;1680883;84;21243;-79
2022/04/28 10:15:14;;;;;;;3.30;1.22;;;;;;;17.64;37.69;100685.58;1767845;80;21174;-79
2022/04/28 10:18:22;;;;;;;3.45;1.02;;;;;;;17.63;35.37;100684.73;1773837;80;21222;-79
2022/04/28 10:21:35;;;;;;;3.08;1.40;;;;;;;17.62;35.59;100680.27;1775928;78;21217;-79
2022/04/28 10:32:22;;;;;;;3.08;0.88;;;;;;;17.71;34.93;100676.77;1747772;81;20595;-79
2022/04/28 10:35:09;;;;;;;2.65;1.45;;;;;;;17.83;36.07;100694.97;1736588;80;21852;-79
2022/04/28 10:38:41;;;;;;;2.05;1.32;;;;;;;17.87;35.52;100699.01;1765707;80;21223;-79
2022/04/28 10:41:40;;;;;;;1.55;0.95;;;;;;;17.89;37.72;100691.36;1761400;80;21505;-79
2022/04/28 10:44:57;;;;;;;3.30;1.02;;;;;;;17.88;34.99;100695.20;1747119;81;21205;-79
2022/04/28 10:48:31;;;;;;;4.65;1.30;;;;;;;17.84;33.78;100688.39;1757665;80;21193;-79
2022/04/28 10:51:42;;;;;;;1.67;0.80;;;;;;;17.86;34.72;100699.55;1765700;80;21240;-79
2022/04/28 10:54:52;;;;;;;3.27;0.85;;;;;;;17.92;33.65;100686.76;1744582;80;21170;-80
2022/04/28 10:57:59;;;;;;;3.42;1.50;;;;;;;17.97;35.57;100688.34;1755746;80;21251;-79
2022/04/28 11:01:07;;;;;;;3.65;1.10;;;;;;;17.98;34.81;100690.07;1714798;80;21164;-79
2022/04/28 11:04:14;;;;;;;1.40;1.02;;;;;;;17.98;34.48;100684.53;1742204;80;21839;-79
2022/04/28 11:07:27;;;;;;;1.82;0.98;;;;;;;17.95;35.88;100679.95;1759372;80;21248;-79
2022/04/28 11:10:34;;;;;;;2.50;1.00;;;;;;;17.98;33.34;100683.15;1762578;80;21166;-79
2022/04/28 11:13:33;;;;;;;5.33;1.17;;;;;;;18.08;32.83;100673.02;1754935;81;21229;-79
2022/04/28 11:16:39;;;;;;;2.67;1.05;;;;;;;18.17;34.55;100669.48;1752181;80;21176;-79
2022/04/28 11:19:47;;;;;;;1.82;1.10;;;;;;;18.24;33.92;100665.60;1757622;80;21694;-80
2022/04/28 11:22:58;;;;;;;3.30;1.05;;;;;;;18.27;32.90;100667.10;1757270;80;21242;-84
2022/04/28 11:26:06;;;;;;;3.95;1.02;;;;;;;18.25;35.66;100670.61;1758087;80;21212;-83
2022/04/28 11:29:16;;;;;;;2.70;1.32;;;;;;;18.27;36.39;100666.56;1757231;80;21173;-78
2022/04/28 11:32:26;;;;;;;4.85;1.40;;;;;;;18.31;33.79;100660.06;1746465;80;21187;-80
2022/04/28 11:35:43;;;;;;;2.60;1.30;;;;;;;18.33;34.24;100655.14;1729662;80;21187;-78
2022/04/28 11:38:44;;;;;;;2.35;1.32;;;;;;;18.29;34.28;100658.03;1740152;81;21179;-79
2022/04/28 11:41:53;;;;;;;2.33;1.10;;;;;;;18.26;33.94;100643.26;1713607;82;21289;-79
2022/04/28 11:45:01;;;;;;;7.50;1.02;;;;;;;18.30;35.59;100650.03;1674344;83;21240;-79
2022/04/28 11:48:08;;;;;;;2.67;0.85;;;;;;;18.28;34.41;100635.03;1706342;82;21233;-79
2022/04/28 11:51:15;;;;;;;2.72;1.22;;;;;;;18.22;33.84;100639.22;1703263;82;21209;-79
2022/04/28 11:54:33;;;;;;;7.25;1.10;;;;;;;18.14;34.93;100637.53;1705407;82;21811;-79
2022/04/28 11:57:39;;;;;;;3.98;0.90;;;;;;;18.08;34.64;100642.56;1689054;83;21256;-79
2022/04/28 12:00:48;;;;;;;2.22;1.25;;;;;;;18.05;35.84;100642.98;1700923;82;21766;-79
2022/04/28 12:04:03;;;;;;;3.87;1.12;;;;;;;18.06;35.69;100630.84;1687151;84;21496;-80
2022/04/28 12:07:11;;;;;;;3.92;1.65;;;;;;;18.06;35.66;100629.46;1700035;82;21247;-80
2022/04/28 12:20:33;;;;;;;2.40;1.02;;;;;;;18.10;34.84;100622.42;1695724;82;21238;-78
2022/04/28 12:23:50;;;;;;;1.72;1.12;;;;;;;18.14;34.70;100623.69;1725940;80;21207;-79
2022/04/28 12:26:51;;;;;;;2.42;1.20;;;;;;;18.18;36.81;100625.50;1733816;82;21741;-78
2022/04/28 12:30:04;;;;;;;3.00;1.50;;;;;;;18.20;35.94;100623.34;1725375;80;21175;-79
2022/04/28 12:32:53;;;;;;;21.05;2.10;;;;;;;18.19;34.85;100619.73;1757681;80;21184;-79
2022/04/28 12:35:47;;;;;;;5.08;1.02;;;;;;;18.23;34.57;100616.00;1720481;83;21219;-79
2022/04/28 12:38:58;;;;;;;2.92;1.30;;;;;;;18.26;34.39;100615.57;1759585;80;21250;-79
2022/04/28 12:42:04;;;;;;;7.70;1.55;;;;;;;18.29;35.80;100619.27;1769040;79;21180;-79
2022/04/28 12:45:10;;;;;;;1.95;0.90;;;;;;;18.27;35.64;100617.27;1746331;80;21216;-79
2022/04/28 12:48:45;;;;;;;1.40;1.00;;;;;;;18.26;35.77;100630.27;1742866;80;21255;-79
2022/04/28 12:51:56;;;;;;;6.95;1.50;;;;;;;18.25;34.31;100622.16;1724586;80;21756;-80
2022/04/28 12:55:13;;;;;;;2.22;1.20;;;;;;;18.21;34.04;100612.58;1741927;82;21195;-79
2022/04/28 12:58:22;;;;;;;1.45;1.17;;;;;;;18.20;34.56;100612.27;1759611;80;21228;-79
2022/04/28 13:01:28;;;;;;;9.98;1.55;;;;;;;18.22;35.51;100622.61;1718445;80;21748;-79
2022/04/28 13:04:34;;;;;;;1.60;1.00;;;;;;;18.21;34.15;100612.58;1734606;80;21185;-79
2022/04/28 13:07:40;;;;;;;4.20;1.27;;;;;;;18.19;34.36;100612.81;1744954;79;21191;-80
2022/04/28 13:10:46;;;;;;;5.35;1.35;;;;;;;18.17;34.14;100607.20;1749527;80;21173;-79
2022/04/28 13:13:54;;;;;;;1.30;0.80;;;;;;;18.18;34.00;100612.50;1725199;80;21648;-79
2022/04/28 13:17:00;;;;;;;4.53;1.10;;;;;;;18.16;34.10;100609.63;1729479;80;21552;-80
2022/04/28 13:20:07;;;;;;;7.28;1.27;;;;;;;18.14;34.39;100607.92;1717116;83;21196;-80
2022/04/28 13:23:14;;;;;;;1.70;1.30;;;;;;;18.16;34.67;100601.31;1735773;81;21187;-80
2022/04/28 13:26:23;;;;;;;2.30;0.93;;;;;;;18.18;32.55;100606.97;1721508;82;21180;-80
2022/04/28 13:29:29;;;;;;;6.00;1.05;;;;;;;18.17;33.09;100608.58;1732109;81;21215;-80
2022/04/28 13:32:36;;;;;;;5.37;1.17;;;;;;;18.18;34.28;100608.34;1736355;81;21820;-86
2022/04/28 13:35:42;;;;;;;1.50;1.10;;;;;;;18.22;34.43;100615.69;1781047;79;21599;-86
2022/04/28 13:38:49;;;;;;;4.58;1.00;;;;;;;18.23;34.05;100616.00;1782582;80;21787;-83
2022/04/28 13:41:57;;;;;;;2.25;1.00;;;;;;;18.21;33.92;100619.50;1763222;79;21273;-84
2022/04/28 13:44:49;;;;;;;3.12;0.80;;;;;;;18.22;34.02;100619.84;1769824;78;21129;-85
2022/04/28 13:47:55;;;;;;;5.83;1.00;;;;;;;18.28;33.57;100618.42;1778696;79;21200;-85
2022/04/28 13:51:02;;;;;;;8.28;1.22;;;;;;;18.31;34.09;100612.99;1779924;79;21444;-85
2022/04/28 13:54:08;;;;;;;4.85;1.02;;;;;;;18.34;35.42;100613.37;1776854;79;21161;-85
2022/04/28 13:57:14;;;;;;;0.85;0.70;;;;;;;18.36;34.76;100618.72;1758136;79;21581;-85
2022/04/28 14:00:21;;;;;;;2.55;1.00;;;;;;;18.33;32.69;100610.30;1776909;78;21838;-86
2022/04/28 14:03:32;;;;;;;5.50;0.80;;;;;;;18.27;33.67;100610.34;1772607;79;21719;-86
2022/04/28 14:06:40;;;;;;;2.35;1.25;;;;;;;18.24;32.80;100606.08;1778336;78;21162;-85
2022/04/28 14:09:47;;;;;;;3.92;1.02;;;;;;;18.22;33.36;100617.92;1776860;78;21729;-85
2022/04/28 14:12:53;;;;;;;4.72;1.17;;;;;;;18.25;34.92;100618.84;1780422;78;21777;-85
2022/04/28 14:15:59;;;;;;;1.87;0.95;;;;;;;18.28;35.58;100621.72;1778962;79;21806;-85
2022/04/28 14:19:07;;;;;;;7.12;1.30;;;;;;;18.30;35.08;100620.95;1777702;78;21154;-85
2022/04/28 14:22:17;;;;;;;2.15;0.90;;;;;;;18.29;34.99;100616.50;1780575;78;21717;-84
2022/04/28 14:25:21;;;;;;;3.05;1.00;;;;;;;18.26;34.01;100610.88;1749995;80;21298;-85
2022/04/28 14:28:27;;;;;;;3.70;1.20;;;;;;;18.28;35.13;100615.65;1751214;80;21755;-84
2022/04/28 14:31:32;;;;;;;1.90;0.88;;;;;;;18.30;36.29;100607.99;1757597;79;21156;-84
2022/04/28 14:34:40;;;;;;;1.92;0.90;;;;;;;18.27;34.37;100610.34;1776860;79;21198;-84
2022/04/28 14:37:46;;;;;;;9.63;0.95;;;;;;;18.23;34.22;100611.84;1733531;81;21216;-78
2022/04/28 14:40:52;;;;;;;4.08;1.20;;;;;;;18.17;34.14;100609.42;1740319;81;21173;-82
2022/04/28 14:43:58;;;;;;;9.78;1.07;;;;;;;18.14;35.05;100605.16;1735946;81;21741;-84
2022/04/28 14:47:05;;;;;;;1.75;1.05;;;;;;;18.09;35.49;100602.20;1734347;81;21209;-78
2022/04/28 14:53:36;;;;;;;4.12;1.67;;;;;;;18.03;35.40;100598.09;1727527;81;21219;-78
2022/04/28 14:56:42;;;;;;;5.60;1.12;;;;;;;18.02;36.22;100597.74;1708522;81;21728;-79
2022/04/28 14:59:47;;;;;;;2.75;1.10;;;;;;;18.02;36.04;100603.28;1716238;83;22206;-79
2022/04/28 15:02:54;;;;;;;3.12;0.95;;;;;;;18.03;35.55;100605.85;1723171;82;21257;-79
2022/04/28 15:06:00;;;;;;;2.37;1.15;;;;;;;18.02;35.38;100604.16;1717446;83;21247;-79
2022/04/28 15:09:06;;;;;;;7.05;1.27;;;;;;;18.00;35.24;100599.89;1734776;82;21173;-79
2022/04/28 15:12:11;;;;;;;23.25;1.82;;;;;;;17.96;35.97;100599.47;1714539;83;21197;-79
2022/04/28 15:15:20;;;;;;;7.97;1.10;;;;;;;17.90;36.22;100603.66;1736692;82;21157;-79
2022/04/28 15:18:27;;;;;;;10.55;1.47;;;;;;;17.79;35.99;100599.66;1717364;82;21634;-79
2022/04/28 15:21:33;;;;;;;2.70;0.80;;;;;;;17.71;35.73;100605.38;1725768;83;21438;-79
2022/04/28 15:24:39;;;;;;;5.45;1.37;;;;;;;17.62;35.89;100595.91;1726486;82;21782;-79